createdAt,value
2023-05-12T00:00:04.590Z,0.000000
2023-05-12T00:01:01.157Z,0.000000
2023-05-12T00:02:01.238Z,0.000000
2023-05-12T00:03:01.260Z,0.000000
2023-05-12T00:04:00.402Z,0.000000
2023-05-12T00:05:02.670Z,0.000000
2023-05-12T00:06:00.277Z,0.000000
2023-05-12T00:07:00.211Z,0.000000
2023-05-12T00:08:00.278Z,0.000000
2023-05-12T00:09:00.226Z,0.000000
2023-05-12T00:10:04.477Z,0.000000
2023-05-12T00:11:00.240Z,0.000000
2023-05-12T00:12:00.313Z,0.000000
2023-05-12T00:13:00.252Z,0.000000
2023-05-12T00:14:00.348Z,0.000000
2023-05-12T00:15:02.735Z,0.000000
2023-05-12T00:16:00.403Z,0.000000
2023-05-12T00:17:00.248Z,0.000000
2023-05-12T00:18:00.380Z,0.000000
2023-05-12T00:19:00.284Z,0.000000
2023-05-12T00:20:03.245Z,0.000000
2023-05-12T00:21:00.300Z,0.000000
2023-05-12T00:22:00.405Z,0.000000
2023-05-12T00:23:00.291Z,0.000000
2023-05-12T00:24:00.393Z,0.000000
2023-05-12T00:25:02.785Z,0.000000
2023-05-12T00:26:00.410Z,0.000000
2023-05-12T00:27:00.332Z,11.250000
2023-05-12T00:28:00.393Z,11.250000
2023-05-12T00:29:00.327Z,11.250000
2023-05-12T00:30:03.391Z,11.250000
2023-05-12T00:31:00.345Z,11.250000
2023-05-12T00:32:00.540Z,11.250000
2023-05-12T00:33:00.387Z,0.000000
2023-05-12T00:34:01.505Z,0.000000
2023-05-12T00:35:02.846Z,0.000000
2023-05-12T00:36:00.498Z,0.000000
2023-05-12T00:37:00.349Z,0.000000
2023-05-12T00:38:00.425Z,0.000000
2023-05-12T00:39:00.386Z,0.000000
2023-05-12T00:40:03.736Z,0.000000
2023-05-12T00:41:00.382Z,0.000000
2023-05-12T00:42:00.496Z,0.000000
2023-05-12T00:43:00.426Z,0.000000
2023-05-12T00:44:00.469Z,0.000000
2023-05-12T00:45:04.179Z,0.000000
2023-05-12T00:46:00.547Z,0.000000
2023-05-12T00:47:00.452Z,0.000000
2023-05-12T00:48:00.582Z,0.000000
2023-05-12T00:49:00.471Z,0.000000
2023-05-12T00:50:03.140Z,0.000000
2023-05-12T00:51:00.505Z,0.000000
2023-05-12T00:52:03.849Z,0.000000
2023-05-12T00:53:00.479Z,0.000000
2023-05-12T00:54:00.560Z,0.000000
2023-05-12T00:55:03.135Z,0.000000
2023-05-12T00:56:00.567Z,0.000000
2023-05-12T00:57:00.517Z,0.000000
2023-05-12T00:58:00.587Z,22.500000
2023-05-12T00:59:00.492Z,22.500000
2023-05-12T01:00:06.647Z,0.000000
2023-05-12T01:01:01.551Z,0.000000
2023-05-12T01:02:01.672Z,0.000000
2023-05-12T01:03:01.711Z,0.000000
2023-05-12T01:04:01.616Z,0.000000
2023-05-12T01:05:04.187Z,0.000000
2023-05-12T01:06:01.631Z,0.000000
2023-05-12T01:07:01.549Z,0.000000
2023-05-12T01:08:01.647Z,0.000000
2023-05-12T01:09:01.588Z,0.000000
2023-05-12T01:10:04.588Z,0.000000
2023-05-12T01:11:01.577Z,0.000000
2023-05-12T01:12:01.696Z,0.000000
2023-05-12T01:13:01.618Z,0.000000
2023-05-12T01:14:01.713Z,0.000000
2023-05-12T01:15:04.262Z,0.000000
2023-05-12T01:16:01.668Z,0.000000
2023-05-12T01:17:01.660Z,11.250000
2023-05-12T01:18:01.809Z,11.250000
2023-05-12T01:19:01.817Z,11.250000
2023-05-12T01:20:04.736Z,11.250000
2023-05-12T01:21:01.645Z,11.250000
2023-05-12T01:22:01.721Z,11.250000
2023-05-12T01:23:01.706Z,0.000000
2023-05-12T01:24:01.738Z,0.000000
2023-05-12T01:25:04.237Z,0.000000
2023-05-12T01:26:01.760Z,0.000000
2023-05-12T01:27:01.692Z,0.000000
2023-05-12T01:28:01.941Z,0.000000
2023-05-12T01:29:01.691Z,0.000000
2023-05-12T01:30:05.251Z,0.000000
2023-05-12T01:31:01.750Z,0.000000
2023-05-12T01:32:01.800Z,0.000000
2023-05-12T01:33:01.873Z,0.000000
2023-05-12T01:34:01.772Z,0.000000
2023-05-12T01:35:04.301Z,0.000000
2023-05-12T01:36:01.814Z,0.000000
2023-05-12T01:37:01.749Z,0.000000
2023-05-12T01:38:02.856Z,0.000000
2023-05-12T01:39:01.736Z,0.000000
2023-05-12T01:40:05.543Z,0.000000
2023-05-12T01:41:01.743Z,0.000000
2023-05-12T01:42:01.861Z,0.000000
2023-05-12T01:43:01.786Z,0.000000
2023-05-12T01:44:01.862Z,0.000000
2023-05-12T01:45:04.826Z,0.000000
2023-05-12T01:46:01.881Z,0.000000
2023-05-12T01:47:01.795Z,0.000000
2023-05-12T01:48:00.942Z,11.250000
2023-05-12T01:49:00.782Z,11.250000
2023-05-12T01:50:03.898Z,11.250000
2023-05-12T01:51:00.823Z,0.000000
2023-05-12T01:52:00.881Z,0.000000
2023-05-12T01:53:00.830Z,0.000000
2023-05-12T01:54:00.906Z,0.000000
2023-05-12T01:55:03.411Z,0.000000
2023-05-12T01:56:00.980Z,0.000000
2023-05-12T01:57:00.847Z,0.000000
2023-05-12T01:58:00.937Z,0.000000
2023-05-12T01:59:00.874Z,0.000000
2023-05-12T02:00:04.422Z,0.000000
2023-05-12T02:01:00.921Z,0.000000
2023-05-12T02:02:01.011Z,0.000000
2023-05-12T02:03:00.967Z,0.000000
2023-05-12T02:04:01.053Z,0.000000
2023-05-12T02:05:03.301Z,0.000000
2023-05-12T02:06:00.991Z,11.250000
2023-05-12T02:07:00.893Z,11.250000
2023-05-12T02:08:00.995Z,22.500000
2023-05-12T02:09:00.910Z,22.500000
2023-05-12T02:10:04.430Z,11.250000
2023-05-12T02:11:00.909Z,11.250000
2023-05-12T02:12:01.005Z,11.250000
2023-05-12T02:13:00.925Z,11.250000
2023-05-12T02:14:01.008Z,11.250000
2023-05-12T02:15:03.548Z,11.250000
2023-05-12T02:16:01.029Z,22.500000
2023-05-12T02:17:00.966Z,22.500000
2023-05-12T02:18:01.110Z,22.500000
2023-05-12T02:19:01.046Z,0.000000
2023-05-12T02:20:04.336Z,0.000000
2023-05-12T02:21:01.000Z,0.000000
2023-05-12T02:22:01.057Z,0.000000
2023-05-12T02:23:00.993Z,0.000000
2023-05-12T02:24:01.059Z,0.000000
2023-05-12T02:25:03.455Z,0.000000
2023-05-12T02:26:01.079Z,11.250000
2023-05-12T02:27:01.028Z,11.250000
2023-05-12T02:28:01.062Z,33.750000
2023-05-12T02:29:01.001Z,33.750000
2023-05-12T02:30:03.987Z,33.750000
2023-05-12T02:31:01.032Z,22.500000
2023-05-12T02:32:01.152Z,22.500000
2023-05-12T02:33:01.139Z,56.250000
2023-05-12T02:34:01.106Z,56.250000
2023-05-12T02:35:04.772Z,56.250000
2023-05-12T02:36:01.143Z,45.000000
2023-05-12T02:37:01.088Z,45.000000
2023-05-12T02:38:01.165Z,45.000000
2023-05-12T02:39:01.073Z,90.000000
2023-05-12T02:40:04.971Z,90.000000
2023-05-12T02:41:01.090Z,112.500000
2023-05-12T02:42:01.153Z,112.500000
2023-05-12T02:43:01.076Z,78.750000
2023-05-12T02:44:01.175Z,78.750000
2023-05-12T02:45:04.094Z,33.750000
2023-05-12T02:46:01.259Z,22.500000
2023-05-12T02:47:01.108Z,22.500000
2023-05-12T02:48:01.276Z,22.500000
2023-05-12T02:49:01.154Z,22.500000
2023-05-12T02:50:04.188Z,22.500000
2023-05-12T02:51:01.151Z,22.500000
2023-05-12T02:52:01.222Z,33.750000
2023-05-12T02:53:01.145Z,33.750000
2023-05-12T02:54:01.249Z,0.000000
2023-05-12T02:55:03.574Z,0.000000
2023-05-12T02:56:01.300Z,33.750000
2023-05-12T02:57:00.195Z,33.750000
2023-05-12T02:58:00.240Z,33.750000
2023-05-12T02:59:00.180Z,0.000000
2023-05-12T03:00:03.547Z,0.000000
2023-05-12T03:01:10.145Z,0.000000
2023-05-12T03:02:00.463Z,0.000000
2023-05-12T03:03:00.390Z,0.000000
2023-05-12T03:04:00.328Z,22.500000
2023-05-12T03:05:02.754Z,22.500000
2023-05-12T03:06:00.354Z,45.000000
2023-05-12T03:07:00.263Z,45.000000
2023-05-12T03:08:00.337Z,45.000000
2023-05-12T03:09:00.268Z,45.000000
2023-05-12T03:10:04.470Z,45.000000
2023-05-12T03:11:00.274Z,45.000000
2023-05-12T03:12:00.351Z,56.250000
2023-05-12T03:13:00.265Z,56.250000
2023-05-12T03:14:00.376Z,56.250000
2023-05-12T03:15:03.476Z,11.250000
2023-05-12T03:16:00.390Z,11.250000
2023-05-12T03:17:00.324Z,22.500000
2023-05-12T03:18:00.434Z,22.500000
2023-05-12T03:19:00.354Z,22.500000
2023-05-12T03:20:03.464Z,22.500000
2023-05-12T03:21:00.353Z,22.500000
2023-05-12T03:22:00.390Z,22.500000
2023-05-12T03:23:00.340Z,22.500000
2023-05-12T03:24:00.408Z,22.500000
2023-05-12T03:25:02.803Z,22.500000
2023-05-12T03:26:00.444Z,22.500000
2023-05-12T03:27:00.360Z,22.500000
2023-05-12T03:28:00.427Z,22.500000
2023-05-12T03:29:00.355Z,22.500000
2023-05-12T03:30:04.326Z,22.500000
2023-05-12T03:31:00.452Z,22.500000
2023-05-12T03:32:00.480Z,22.500000
2023-05-12T03:33:00.500Z,22.500000
2023-05-12T03:34:00.484Z,22.500000
2023-05-12T03:35:02.915Z,22.500000
2023-05-12T03:36:00.505Z,22.500000
2023-05-12T03:37:00.410Z,22.500000
2023-05-12T03:38:00.527Z,22.500000
2023-05-12T03:39:00.450Z,22.500000
2023-05-12T03:40:03.344Z,22.500000
2023-05-12T03:41:00.423Z,22.500000
2023-05-12T03:42:00.540Z,22.500000
2023-05-12T03:43:00.442Z,22.500000
2023-05-12T03:44:00.569Z,22.500000
2023-05-12T03:45:03.180Z,22.500000
2023-05-12T03:46:01.633Z,22.500000
2023-05-12T03:47:00.575Z,22.500000
2023-05-12T03:48:00.588Z,22.500000
2023-05-12T03:49:00.484Z,22.500000
2023-05-12T03:50:03.755Z,11.250000
2023-05-12T03:51:00.515Z,11.250000
2023-05-12T03:52:01.605Z,22.500000
2023-05-12T03:53:00.507Z,22.500000
2023-05-12T03:54:00.591Z,22.500000
2023-05-12T03:55:03.027Z,22.500000
2023-05-12T03:56:00.605Z,22.500000
2023-05-12T03:57:00.566Z,33.750000
2023-05-12T03:58:00.601Z,33.750000
2023-05-12T03:59:00.564Z,33.750000
2023-05-12T04:00:05.076Z,33.750000
2023-05-12T04:01:00.576Z,33.750000
2023-05-12T04:02:00.785Z,33.750000
2023-05-12T04:03:00.696Z,33.750000
2023-05-12T04:04:00.732Z,22.500000
2023-05-12T04:05:02.992Z,22.500000
2023-05-12T04:06:00.673Z,22.500000
2023-05-12T04:07:00.583Z,22.500000
2023-05-12T04:08:00.965Z,22.500000
2023-05-12T04:09:00.644Z,22.500000
2023-05-12T04:10:03.738Z,22.500000
2023-05-12T04:11:00.623Z,22.500000
2023-05-12T04:12:00.721Z,22.500000
2023-05-12T04:13:00.633Z,22.500000
2023-05-12T04:14:00.729Z,22.500000
2023-05-12T04:15:03.124Z,22.500000
2023-05-12T04:16:00.797Z,22.500000
2023-05-12T04:17:00.635Z,22.500000
2023-05-12T04:18:00.731Z,22.500000
2023-05-12T04:19:00.798Z,22.500000
2023-05-12T04:20:03.800Z,22.500000
2023-05-12T04:21:00.698Z,22.500000
2023-05-12T04:22:00.761Z,22.500000
2023-05-12T04:23:00.711Z,22.500000
2023-05-12T04:24:01.377Z,22.500000
2023-05-12T04:25:04.248Z,22.500000
2023-05-12T04:26:00.776Z,22.500000
2023-05-12T04:27:00.746Z,22.500000
2023-05-12T04:28:00.795Z,22.500000
2023-05-12T04:29:00.712Z,22.500000
2023-05-12T04:30:03.492Z,45.000000
2023-05-12T04:31:00.747Z,45.000000
2023-05-12T04:32:00.827Z,45.000000
2023-05-12T04:33:00.788Z,45.000000
2023-05-12T04:34:00.817Z,45.000000
2023-05-12T04:35:03.517Z,11.250000
2023-05-12T04:36:01.063Z,11.250000
2023-05-12T04:37:00.807Z,22.500000
2023-05-12T04:38:01.402Z,22.500000
2023-05-12T04:39:00.791Z,22.500000
2023-05-12T04:40:04.031Z,11.250000
2023-05-12T04:41:00.788Z,11.250000
2023-05-12T04:42:00.879Z,11.250000
2023-05-12T04:43:00.847Z,33.750000
2023-05-12T04:44:01.013Z,33.750000
2023-05-12T04:45:03.234Z,33.750000
2023-05-12T04:46:00.914Z,33.750000
2023-05-12T04:47:00.829Z,33.750000
2023-05-12T04:48:00.990Z,33.750000
2023-05-12T04:49:00.862Z,33.750000
2023-05-12T04:50:05.566Z,22.500000
2023-05-12T04:51:00.861Z,22.500000
2023-05-12T04:52:01.386Z,22.500000
2023-05-12T04:53:00.872Z,22.500000
2023-05-12T04:54:00.949Z,22.500000
2023-05-12T04:55:03.577Z,22.500000
2023-05-12T04:56:00.976Z,22.500000
2023-05-12T04:57:00.906Z,22.500000
2023-05-12T04:58:00.961Z,22.500000
2023-05-12T04:59:00.876Z,22.500000
2023-05-12T05:00:04.768Z,22.500000
2023-05-12T05:01:00.996Z,22.500000
2023-05-12T05:02:02.044Z,22.500000
2023-05-12T05:03:00.992Z,45.000000
2023-05-12T05:04:01.152Z,45.000000
2023-05-12T05:05:03.848Z,22.500000
2023-05-12T05:06:01.404Z,22.500000
2023-05-12T05:07:00.977Z,22.500000
2023-05-12T05:08:01.037Z,33.750000
2023-05-12T05:09:00.981Z,33.750000
2023-05-12T05:10:04.207Z,33.750000
2023-05-12T05:11:01.006Z,33.750000
2023-05-12T05:12:01.136Z,33.750000
2023-05-12T05:13:00.996Z,45.000000
2023-05-12T05:14:01.078Z,45.000000
2023-05-12T05:15:03.731Z,45.000000
2023-05-12T05:16:01.111Z,33.750000
2023-05-12T05:17:01.027Z,33.750000
2023-05-12T05:18:02.198Z,33.750000
2023-05-12T05:19:05.943Z,33.750000
2023-05-12T05:20:11.430Z,22.500000
2023-05-12T05:21:01.126Z,22.500000
2023-05-12T05:22:01.127Z,22.500000
2023-05-12T05:23:01.062Z,22.500000
2023-05-12T05:24:02.202Z,22.500000
2023-05-12T05:25:03.471Z,22.500000
2023-05-12T05:26:01.147Z,22.500000
2023-05-12T05:27:01.093Z,22.500000
2023-05-12T05:28:01.161Z,22.500000
2023-05-12T05:29:01.094Z,22.500000
2023-05-12T05:30:04.804Z,45.000000
2023-05-12T05:31:01.134Z,45.000000
2023-05-12T05:32:01.211Z,33.750000
2023-05-12T05:33:01.205Z,33.750000
2023-05-12T05:34:01.232Z,33.750000
2023-05-12T05:35:03.644Z,22.500000
2023-05-12T05:36:01.247Z,22.500000
2023-05-12T05:37:01.136Z,22.500000
2023-05-12T05:38:01.209Z,22.500000
2023-05-12T05:39:01.186Z,22.500000
2023-05-12T05:40:04.228Z,22.500000
2023-05-12T05:41:01.126Z,33.750000
2023-05-12T05:42:01.287Z,33.750000
2023-05-12T05:43:01.150Z,22.500000
2023-05-12T05:44:01.252Z,22.500000
2023-05-12T05:45:02.702Z,22.500000
2023-05-12T05:46:00.269Z,22.500000
2023-05-12T05:47:00.334Z,22.500000
2023-05-12T05:48:00.354Z,22.500000
2023-05-12T05:49:00.175Z,22.500000
2023-05-12T05:50:03.181Z,22.500000
2023-05-12T05:51:00.207Z,33.750000
2023-05-12T05:52:00.274Z,33.750000
2023-05-12T05:53:00.210Z,33.750000
2023-05-12T05:54:01.390Z,33.750000
2023-05-12T05:55:02.933Z,33.750000
2023-05-12T05:56:00.285Z,22.500000
2023-05-12T05:57:00.219Z,22.500000
2023-05-12T05:58:00.320Z,22.500000
2023-05-12T05:59:00.244Z,33.750000
2023-05-12T06:00:03.310Z,33.750000
2023-05-12T06:01:00.286Z,45.000000
2023-05-12T06:02:00.428Z,45.000000
2023-05-12T06:03:00.352Z,45.000000
2023-05-12T06:04:00.452Z,45.000000
2023-05-12T06:05:02.722Z,45.000000
2023-05-12T06:06:00.395Z,45.000000
2023-05-12T06:07:00.274Z,45.000000
2023-05-12T06:08:01.396Z,45.000000
2023-05-12T06:09:00.329Z,22.500000
2023-05-12T06:10:05.266Z,22.500000
2023-05-12T06:11:00.350Z,22.500000
2023-05-12T06:12:00.423Z,22.500000
2023-05-12T06:13:00.331Z,22.500000
2023-05-12T06:14:01.379Z,45.000000
2023-05-12T06:15:03.587Z,45.000000
2023-05-12T06:16:00.473Z,45.000000
2023-05-12T06:17:00.433Z,22.500000
2023-05-12T06:18:00.559Z,22.500000
2023-05-12T06:19:00.419Z,56.250000
2023-05-12T06:20:03.474Z,56.250000
2023-05-12T06:21:00.414Z,56.250000
2023-05-12T06:22:00.476Z,22.500000
2023-05-12T06:23:00.391Z,22.500000
2023-05-12T06:24:02.056Z,22.500000
2023-05-12T06:25:02.942Z,22.500000
2023-05-12T06:26:00.574Z,22.500000
2023-05-12T06:27:00.416Z,22.500000
2023-05-12T06:28:01.436Z,22.500000
2023-05-12T06:29:00.408Z,45.000000
2023-05-12T06:30:03.554Z,45.000000
2023-05-12T06:31:00.476Z,45.000000
2023-05-12T06:32:03.698Z,33.750000
2023-05-12T06:33:00.472Z,33.750000
2023-05-12T06:34:00.540Z,33.750000
2023-05-12T06:35:02.818Z,45.000000
2023-05-12T06:36:01.523Z,45.000000
2023-05-12T06:37:00.464Z,78.750000
2023-05-12T06:38:00.548Z,78.750000
2023-05-12T06:39:00.518Z,45.000000
2023-05-12T06:40:03.441Z,45.000000
2023-05-12T06:41:00.471Z,33.750000
2023-05-12T06:42:00.558Z,33.750000
2023-05-12T06:43:00.493Z,33.750000
2023-05-12T06:44:01.593Z,22.500000
2023-05-12T06:45:03.071Z,22.500000
2023-05-12T06:46:00.598Z,22.500000
2023-05-12T06:47:00.535Z,33.750000
2023-05-12T06:48:00.675Z,33.750000
2023-05-12T06:49:00.531Z,33.750000
2023-05-12T06:50:03.395Z,33.750000
2023-05-12T06:51:00.541Z,45.000000
2023-05-12T06:52:00.640Z,45.000000
2023-05-12T06:53:00.548Z,45.000000
2023-05-12T06:54:00.658Z,45.000000
2023-05-12T06:55:03.054Z,45.000000
2023-05-12T06:56:00.637Z,45.000000
2023-05-12T06:57:00.610Z,45.000000
2023-05-12T06:58:01.484Z,45.000000
2023-05-12T06:59:00.562Z,45.000000
2023-05-12T07:00:04.129Z,33.750000
2023-05-12T07:01:00.650Z,33.750000
2023-05-12T07:02:00.719Z,33.750000
2023-05-12T07:03:00.695Z,33.750000
2023-05-12T07:04:00.779Z,56.250000
2023-05-12T07:05:03.210Z,56.250000
2023-05-12T07:06:00.763Z,56.250000
2023-05-12T07:07:00.647Z,33.750000
2023-05-12T07:08:00.689Z,33.750000
2023-05-12T07:09:00.637Z,45.000000
2023-05-12T07:10:04.285Z,45.000000
2023-05-12T07:11:00.647Z,45.000000
2023-05-12T07:12:00.724Z,33.750000
2023-05-12T07:13:00.655Z,33.750000
2023-05-12T07:14:01.399Z,22.500000
2023-05-12T07:15:03.140Z,22.500000
2023-05-12T07:16:00.836Z,22.500000
2023-05-12T07:17:00.699Z,33.750000
2023-05-12T07:18:00.815Z,33.750000
2023-05-12T07:19:00.735Z,33.750000
2023-05-12T07:20:03.782Z,33.750000
2023-05-12T07:21:00.743Z,33.750000
2023-05-12T07:22:00.798Z,22.500000
2023-05-12T07:23:00.715Z,22.500000
2023-05-12T07:24:03.975Z,22.500000
2023-05-12T07:25:03.317Z,22.500000
2023-05-12T07:26:00.812Z,22.500000
2023-05-12T07:27:00.763Z,22.500000
2023-05-12T07:28:01.416Z,22.500000
2023-05-12T07:29:00.911Z,22.500000
2023-05-12T07:30:05.132Z,33.750000
2023-05-12T07:31:00.780Z,33.750000
2023-05-12T07:32:01.388Z,45.000000
2023-05-12T07:33:00.820Z,45.000000
2023-05-12T07:34:00.870Z,45.000000
2023-05-12T07:35:03.302Z,22.500000
2023-05-12T07:36:01.390Z,22.500000
2023-05-12T07:37:00.814Z,33.750000
2023-05-12T07:38:00.875Z,33.750000
2023-05-12T07:39:00.843Z,33.750000
2023-05-12T07:40:06.714Z,45.000000
2023-05-12T07:41:00.843Z,45.000000
2023-05-12T07:42:00.913Z,45.000000
2023-05-12T07:43:00.856Z,45.000000
2023-05-12T07:44:00.911Z,45.000000
2023-05-12T07:45:03.417Z,22.500000
2023-05-12T07:46:00.966Z,22.500000
2023-05-12T07:47:00.914Z,33.750000
2023-05-12T07:48:01.047Z,33.750000
2023-05-12T07:49:00.882Z,33.750000
2023-05-12T07:50:03.798Z,56.250000
2023-05-12T07:51:00.939Z,56.250000
2023-05-12T07:52:01.011Z,56.250000
2023-05-12T07:53:00.908Z,45.000000
2023-05-12T07:54:01.013Z,45.000000
2023-05-12T07:55:03.583Z,22.500000
2023-05-12T07:56:01.041Z,22.500000
2023-05-12T07:57:00.958Z,22.500000
2023-05-12T07:58:01.033Z,22.500000
2023-05-12T07:59:00.958Z,22.500000
2023-05-12T08:00:15.757Z,33.750000
2023-05-12T08:01:00.973Z,33.750000
2023-05-12T08:02:01.052Z,33.750000
2023-05-12T08:03:01.192Z,33.750000
2023-05-12T08:04:01.551Z,33.750000
2023-05-12T08:05:04.786Z,33.750000
2023-05-12T08:06:01.093Z,33.750000
2023-05-12T08:07:01.058Z,45.000000
2023-05-12T08:08:01.107Z,45.000000
2023-05-12T08:09:01.031Z,45.000000
2023-05-12T08:10:16.477Z,45.000000
2023-05-12T08:11:01.025Z,45.000000
2023-05-12T08:12:01.115Z,45.000000
2023-05-12T08:13:01.047Z,56.250000
2023-05-12T08:14:01.109Z,56.250000
2023-05-12T08:15:03.704Z,67.500000
2023-05-12T08:16:01.176Z,67.500000
2023-05-12T08:17:01.190Z,45.000000
2023-05-12T08:18:01.924Z,45.000000
2023-05-12T08:19:01.124Z,45.000000
2023-05-12T08:20:04.462Z,45.000000
2023-05-12T08:21:01.083Z,45.000000
2023-05-12T08:22:01.194Z,45.000000
2023-05-12T08:23:01.102Z,33.750000
2023-05-12T08:24:01.884Z,33.750000
2023-05-12T08:25:03.717Z,33.750000
2023-05-12T08:26:01.160Z,33.750000
2023-05-12T08:27:01.094Z,33.750000
2023-05-12T08:28:01.223Z,22.500000
2023-05-12T08:29:01.112Z,22.500000
2023-05-12T08:30:03.896Z,11.250000
2023-05-12T08:31:04.090Z,11.250000
2023-05-12T08:32:02.258Z,11.250000
2023-05-12T08:33:01.231Z,33.750000
2023-05-12T08:34:10.482Z,33.750000
2023-05-12T08:35:03.713Z,33.750000
2023-05-12T08:36:01.242Z,33.750000
2023-05-12T08:37:01.148Z,33.750000
2023-05-12T08:38:01.260Z,33.750000
2023-05-12T08:39:01.195Z,33.750000
2023-05-12T08:40:06.637Z,33.750000
2023-05-12T08:41:00.192Z,33.750000
2023-05-12T08:42:00.261Z,33.750000
2023-05-12T08:43:01.864Z,33.750000
2023-05-12T08:44:00.289Z,33.750000
2023-05-12T08:45:02.855Z,33.750000
2023-05-12T08:46:00.397Z,45.000000
2023-05-12T08:47:00.427Z,45.000000
2023-05-12T08:48:00.389Z,45.000000
2023-05-12T08:49:00.219Z,45.000000
2023-05-12T08:50:03.224Z,11.250000
2023-05-12T08:51:00.267Z,11.250000
2023-05-12T08:52:00.347Z,22.500000
2023-05-12T08:53:00.257Z,22.500000
2023-05-12T08:54:00.368Z,22.500000
2023-05-12T08:55:03.586Z,33.750000
2023-05-12T08:57:09.684Z,33.750000
2023-05-12T08:58:00.396Z,33.750000
2023-05-12T08:59:00.288Z,33.750000
2023-05-12T09:00:04.447Z,45.000000
2023-05-12T09:01:00.342Z,45.000000
2023-05-12T09:02:04.147Z,33.750000
2023-05-12T09:03:00.348Z,33.750000
2023-05-12T09:04:02.547Z,33.750000
2023-05-12T09:05:02.982Z,45.000000
2023-05-12T09:06:00.963Z,45.000000
2023-05-12T09:07:00.352Z,45.000000
2023-05-12T09:08:00.627Z,56.250000
2023-05-12T09:09:00.400Z,56.250000
2023-05-12T09:10:03.439Z,67.500000
2023-05-12T09:11:00.379Z,67.500000
2023-05-12T09:12:00.488Z,67.500000
2023-05-12T09:13:00.387Z,56.250000
2023-05-12T09:14:01.769Z,56.250000
2023-05-12T09:15:02.859Z,56.250000
2023-05-12T09:16:02.172Z,22.500000
2023-05-12T09:17:00.400Z,22.500000
2023-05-12T09:18:00.686Z,22.500000
2023-05-12T09:19:00.462Z,33.750000
2023-05-12T09:20:05.440Z,33.750000
2023-05-12T09:21:00.426Z,22.500000
2023-05-12T09:22:00.684Z,22.500000
2023-05-12T09:23:00.446Z,33.750000
2023-05-12T09:24:00.534Z,33.750000
2023-05-12T09:25:02.895Z,67.500000
2023-05-12T09:26:00.634Z,67.500000
2023-05-12T09:27:00.491Z,67.500000
2023-05-12T09:28:01.443Z,56.250000
2023-05-12T09:29:00.471Z,56.250000
2023-05-12T09:30:18.555Z,56.250000
2023-05-12T09:31:00.496Z,22.500000
2023-05-12T09:32:00.693Z,22.500000
2023-05-12T09:33:00.522Z,22.500000
2023-05-12T09:34:00.589Z,22.500000
2023-05-12T09:35:03.217Z,22.500000
2023-05-12T09:36:00.690Z,22.500000
2023-05-12T09:37:00.533Z,22.500000
2023-05-12T09:38:00.615Z,22.500000
2023-05-12T09:39:00.579Z,22.500000
2023-05-12T09:40:03.931Z,22.500000
2023-05-12T09:41:00.548Z,33.750000
2023-05-12T09:42:00.668Z,33.750000
2023-05-12T09:43:00.561Z,33.750000
2023-05-12T09:44:10.485Z,33.750000
2023-05-12T09:45:03.163Z,33.750000
2023-05-12T09:46:01.465Z,33.750000
2023-05-12T09:47:00.583Z,33.750000
2023-05-12T09:48:03.862Z,33.750000
2023-05-12T09:49:00.592Z,33.750000
2023-05-12T09:50:03.434Z,33.750000
2023-05-12T09:51:00.625Z,22.500000
2023-05-12T09:52:03.843Z,22.500000
2023-05-12T09:53:00.642Z,22.500000
2023-05-12T09:54:00.740Z,22.500000
2023-05-12T09:55:04.230Z,22.500000
2023-05-12T09:56:00.728Z,22.500000
2023-05-12T09:57:00.666Z,22.500000
2023-05-12T09:58:01.485Z,22.500000
2023-05-12T09:59:00.669Z,22.500000
2023-05-12T10:00:04.846Z,22.500000
2023-05-12T10:01:20.793Z,33.750000
2023-05-12T10:02:00.886Z,33.750000
2023-05-12T10:03:00.761Z,33.750000
2023-05-12T10:04:01.867Z,22.500000
2023-05-12T10:05:07.184Z,22.500000
2023-05-12T10:06:00.845Z,22.500000
2023-05-12T10:07:00.742Z,11.250000
2023-05-12T10:08:00.816Z,11.250000
2023-05-12T10:09:00.744Z,56.250000
2023-05-12T10:10:03.599Z,56.250000
2023-05-12T10:11:00.788Z,67.500000
2023-05-12T10:12:01.545Z,67.500000
2023-05-12T10:13:00.743Z,67.500000
2023-05-12T10:14:00.852Z,11.250000
2023-05-12T10:15:03.764Z,11.250000
2023-05-12T10:16:00.853Z,56.250000
2023-05-12T10:17:00.870Z,56.250000
2023-05-12T10:18:00.883Z,56.250000
2023-05-12T10:19:00.795Z,67.500000
2023-05-12T10:20:03.796Z,67.500000
2023-05-12T10:21:00.840Z,78.750000
2023-05-12T10:22:00.885Z,78.750000
2023-05-12T10:23:00.790Z,78.750000
2023-05-12T10:24:00.900Z,56.250000
2023-05-12T10:25:03.484Z,56.250000
2023-05-12T10:26:00.900Z,56.250000
2023-05-12T10:27:00.853Z,22.500000
2023-05-12T10:28:00.926Z,22.500000
2023-05-12T10:29:00.850Z,45.000000
2023-05-12T10:30:04.061Z,45.000000
2023-05-12T10:31:00.876Z,45.000000
2023-05-12T10:32:00.910Z,45.000000
2023-05-12T10:33:00.914Z,45.000000
2023-05-12T10:34:00.947Z,45.000000
2023-05-12T10:35:03.484Z,45.000000
2023-05-12T10:36:00.957Z,45.000000
2023-05-12T10:37:00.870Z,45.000000
2023-05-12T10:38:00.948Z,45.000000
2023-05-12T10:39:00.892Z,45.000000
2023-05-12T10:40:04.178Z,33.750000
2023-05-12T10:41:00.891Z,33.750000
2023-05-12T10:42:01.004Z,22.500000
2023-05-12T10:43:00.901Z,22.500000
2023-05-12T10:44:01.436Z,22.500000
2023-05-12T10:45:03.679Z,22.500000
2023-05-12T10:46:01.023Z,22.500000
2023-05-12T10:47:00.916Z,33.750000
2023-05-12T10:48:01.483Z,33.750000
2023-05-12T10:49:00.946Z,33.750000
2023-05-12T10:50:04.928Z,33.750000
2023-05-12T10:51:00.950Z,33.750000
2023-05-12T10:52:01.048Z,22.500000
2023-05-12T10:53:00.965Z,22.500000
2023-05-12T10:54:01.473Z,33.750000
2023-05-12T10:55:03.524Z,33.750000
2023-05-12T10:56:01.239Z,33.750000
2023-05-12T10:57:01.197Z,22.500000
2023-05-12T10:58:01.921Z,22.500000
2023-05-12T10:59:01.137Z,22.500000
2023-05-12T11:00:04.943Z,22.500000
2023-05-12T11:01:01.541Z,22.500000
2023-05-12T11:02:02.038Z,22.500000
2023-05-12T11:03:06.582Z,33.750000
2023-05-12T11:04:01.377Z,33.750000
2023-05-12T11:05:04.480Z,67.500000
2023-05-12T11:06:01.381Z,67.500000
2023-05-12T11:07:01.561Z,33.750000
2023-05-12T11:08:02.337Z,33.750000
2023-05-12T11:09:01.379Z,33.750000
2023-05-12T11:10:05.124Z,45.000000
2023-05-12T11:11:01.083Z,45.000000
2023-05-12T11:12:02.267Z,45.000000
2023-05-12T11:13:01.065Z,67.500000
2023-05-12T11:14:01.138Z,67.500000
2023-05-12T11:15:03.536Z,33.750000
2023-05-12T11:16:01.205Z,33.750000
2023-05-12T11:17:01.100Z,22.500000
2023-05-12T11:18:01.241Z,22.500000
2023-05-12T11:19:01.160Z,22.500000
2023-05-12T11:20:04.180Z,22.500000
2023-05-12T11:21:01.155Z,22.500000
2023-05-12T11:22:01.205Z,22.500000
2023-05-12T11:23:01.123Z,22.500000
2023-05-12T11:24:01.202Z,22.500000
2023-05-12T11:25:03.688Z,22.500000
2023-05-12T11:26:01.275Z,22.500000
2023-05-12T11:27:01.147Z,22.500000
2023-05-12T11:28:01.373Z,22.500000